sensor_id;sensor_type;location;lat;lon;timestamp;P1;durP1;ratioP1;P2;durP2;ratioP2
20982;SDS011;10650;51.528;6.748;2023-03-31T00:00:50;16.80;;;5.03;;
20982;SDS011;10650;51.528;6.748;2023-03-31T00:03:19;15.57;;;5.20;;
20982;SDS011;10650;51.528;6.748;2023-03-31T00:05:53;16.08;;;4.50;;
20982;SDS011;10650;51.528;6.748;2023-03-31T00:08:25;9.50;;;3.47;;
20982;SDS011;10650;51.528;6.748;2023-03-31T00:13:24;14.43;;;5.03;;
20982;SDS011;10650;51.528;6.748;2023-03-31T00:15:55;14.30;;;4.65;;
20982;SDS011;10650;51.528;6.748;2023-03-31T00:18:23;18.00;;;5.30;;
20982;SDS011;10650;51.528;6.748;2023-03-31T00:20:52;12.23;;;4.50;;
20982;SDS011;10650;51.528;6.748;2023-03-31T00:23:25;13.30;;;4.07;;
20982;SDS011;10650;51.528;6.748;2023-03-31T00:25:54;14.55;;;4.50;;
20982;SDS011;10650;51.528;6.748;2023-03-31T00:28:21;10.55;;;4.05;;
20982;SDS011;10650;51.528;6.748;2023-03-31T00:30:49;13.35;;;4.28;;
20982;SDS011;10650;51.528;6.748;2023-03-31T00:33:18;13.80;;;3.95;;
20982;SDS011;10650;51.528;6.748;2023-03-31T00:35:49;24.83;;;6.47;;
20982;SDS011;10650;51.528;6.748;2023-03-31T00:38:17;15.87;;;5.33;;
20982;SDS011;10650;51.528;6.748;2023-03-31T00:40:48;16.25;;;5.00;;
20982;SDS011;10650;51.528;6.748;2023-03-31T00:43:29;14.27;;;4.15;;
20982;SDS011;10650;51.528;6.748;2023-03-31T00:45:59;12.25;;;3.53;;
20982;SDS011;10650;51.528;6.748;2023-03-31T00:48:38;20.15;;;4.97;;
20982;SDS011;10650;51.528;6.748;2023-03-31T00:51:12;15.13;;;4.15;;
20982;SDS011;10650;51.528;6.748;2023-03-31T00:53:40;13.05;;;5.05;;
20982;SDS011;10650;51.528;6.748;2023-03-31T00:56:10;17.38;;;6.18;;
20982;SDS011;10650;51.528;6.748;2023-03-31T01:01:10;17.52;;;5.90;;
20982;SDS011;10650;51.528;6.748;2023-03-31T01:06:11;16.17;;;4.82;;
20982;SDS011;10650;51.528;6.748;2023-03-31T01:08:42;12.98;;;4.50;;
20982;SDS011;10650;51.528;6.748;2023-03-31T01:11:12;14.57;;;4.60;;
20982;SDS011;10650;51.528;6.748;2023-03-31T01:13:45;16.67;;;5.03;;
20982;SDS011;10650;51.528;6.748;2023-03-31T01:16:16;14.05;;;4.63;;
20982;SDS011;10650;51.528;6.748;2023-03-31T01:18:44;14.43;;;4.95;;
20982;SDS011;10650;51.528;6.748;2023-03-31T01:21:20;7.95;;;3.95;;
20982;SDS011;10650;51.528;6.748;2023-03-31T01:27:29;10.65;;;4.57;;
20982;SDS011;10650;51.528;6.748;2023-03-31T01:30:43;11.57;;;4.80;;
20982;SDS011;10650;51.528;6.748;2023-03-31T01:33:58;14.98;;;5.35;;
20982;SDS011;10650;51.528;6.748;2023-03-31T01:40:00;15.35;;;6.75;;
20982;SDS011;10650;51.528;6.748;2023-03-31T01:42:38;14.93;;;6.20;;
20982;SDS011;10650;51.528;6.748;2023-03-31T01:45:14;14.25;;;5.80;;
20982;SDS011;10650;51.528;6.748;2023-03-31T01:47:51;12.18;;;5.28;;
20982;SDS011;10650;51.528;6.748;2023-03-31T01:50:25;19.08;;;6.07;;
20982;SDS011;10650;51.528;6.748;2023-03-31T01:52:58;14.30;;;5.32;;
20982;SDS011;10650;51.528;6.748;2023-03-31T01:55:34;14.68;;;5.32;;
20982;SDS011;10650;51.528;6.748;2023-03-31T01:58:05;13.52;;;4.70;;
20982;SDS011;10650;51.528;6.748;2023-03-31T02:00:40;13.13;;;5.03;;
20982;SDS011;10650;51.528;6.748;2023-03-31T02:03:13;12.60;;;4.85;;
20982;SDS011;10650;51.528;6.748;2023-03-31T02:05:45;13.38;;;5.50;;
20982;SDS011;10650;51.528;6.748;2023-03-31T02:08:19;15.25;;;5.72;;
20982;SDS011;10650;51.528;6.748;2023-03-31T02:10:50;20.48;;;7.13;;
20982;SDS011;10650;51.528;6.748;2023-03-31T02:13:20;18.45;;;7.95;;
20982;SDS011;10650;51.528;6.748;2023-03-31T02:15:52;11.67;;;6.43;;
20982;SDS011;10650;51.528;6.748;2023-03-31T02:18:25;12.18;;;5.30;;
20982;SDS011;10650;51.528;6.748;2023-03-31T02:20:55;12.27;;;5.60;;
20982;SDS011;10650;51.528;6.748;2023-03-31T02:23:25;13.85;;;6.40;;
20982;SDS011;10650;51.528;6.748;2023-03-31T02:25:59;13.88;;;6.50;;
20982;SDS011;10650;51.528;6.748;2023-03-31T02:28:30;17.90;;;6.72;;
20982;SDS011;10650;51.528;6.748;2023-03-31T02:31:02;13.07;;;6.68;;
20982;SDS011;10650;51.528;6.748;2023-03-31T02:33:36;18.83;;;9.05;;
20982;SDS011;10650;51.528;6.748;2023-03-31T02:36:04;22.67;;;10.55;;
20982;SDS011;10650;51.528;6.748;2023-03-31T02:38:34;21.40;;;10.10;;
20982;SDS011;10650;51.528;6.748;2023-03-31T02:41:07;23.05;;;10.75;;
20982;SDS011;10650;51.528;6.748;2023-03-31T02:43:35;19.65;;;8.65;;
20982;SDS011;10650;51.528;6.748;2023-03-31T02:46:03;22.73;;;9.93;;
20982;SDS011;10650;51.528;6.748;2023-03-31T02:48:32;28.23;;;12.45;;
20982;SDS011;10650;51.528;6.748;2023-03-31T02:51:08;29.15;;;12.82;;
20982;SDS011;10650;51.528;6.748;2023-03-31T02:54:09;26.00;;;11.23;;
20982;SDS011;10650;51.528;6.748;2023-03-31T02:56:53;23.73;;;9.23;;
20982;SDS011;10650;51.528;6.748;2023-03-31T02:59:41;22.60;;;7.15;;
20982;SDS011;10650;51.528;6.748;2023-03-31T03:02:21;21.60;;;7.95;;
20982;SDS011;10650;51.528;6.748;2023-03-31T03:05:02;23.70;;;9.40;;
20982;SDS011;10650;51.528;6.748;2023-03-31T03:07:45;21.80;;;7.78;;
20982;SDS011;10650;51.528;6.748;2023-03-31T03:10:16;17.08;;;5.13;;
20982;SDS011;10650;51.528;6.748;2023-03-31T03:12:54;19.65;;;5.85;;
20982;SDS011;10650;51.528;6.748;2023-03-31T03:15:28;19.42;;;5.80;;
20982;SDS011;10650;51.528;6.748;2023-03-31T03:18:00;19.55;;;5.68;;
20982;SDS011;10650;51.528;6.748;2023-03-31T03:20:29;20.45;;;6.95;;
20982;SDS011;10650;51.528;6.748;2023-03-31T03:22:59;17.85;;;5.97;;
20982;SDS011;10650;51.528;6.748;2023-03-31T03:25:26;16.38;;;4.80;;
20982;SDS011;10650;51.528;6.748;2023-03-31T03:27:56;16.10;;;5.22;;
20982;SDS011;10650;51.528;6.748;2023-03-31T03:30:24;16.17;;;5.90;;
20982;SDS011;10650;51.528;6.748;2023-03-31T03:32:52;19.52;;;6.13;;
20982;SDS011;10650;51.528;6.748;2023-03-31T03:35:21;17.10;;;5.15;;
20982;SDS011;10650;51.528;6.748;2023-03-31T03:37:49;14.15;;;4.50;;
20982;SDS011;10650;51.528;6.748;2023-03-31T03:40:16;16.15;;;5.50;;
20982;SDS011;10650;51.528;6.748;2023-03-31T03:42:44;16.67;;;5.57;;
20982;SDS011;10650;51.528;6.748;2023-03-31T03:45:13;21.17;;;6.18;;
20982;SDS011;10650;51.528;6.748;2023-03-31T03:47:41;18.65;;;6.00;;
20982;SDS011;10650;51.528;6.748;2023-03-31T03:50:09;16.52;;;5.00;;
20982;SDS011;10650;51.528;6.748;2023-03-31T03:55:09;13.63;;;4.80;;
20982;SDS011;10650;51.528;6.748;2023-03-31T03:57:37;17.30;;;6.07;;
20982;SDS011;10650;51.528;6.748;2023-03-31T04:00:05;18.70;;;6.03;;
20982;SDS011;10650;51.528;6.748;2023-03-31T04:02:36;14.65;;;6.10;;
20982;SDS011;10650;51.528;6.748;2023-03-31T04:05:05;16.95;;;6.72;;
20982;SDS011;10650;51.528;6.748;2023-03-31T04:07:33;20.25;;;6.88;;
20982;SDS011;10650;51.528;6.748;2023-03-31T04:10:01;22.50;;;7.13;;
20982;SDS011;10650;51.528;6.748;2023-03-31T04:12:28;16.08;;;6.25;;
20982;SDS011;10650;51.528;6.748;2023-03-31T04:14:56;18.50;;;6.45;;
20982;SDS011;10650;51.528;6.748;2023-03-31T04:17:23;17.73;;;6.00;;
20982;SDS011;10650;51.528;6.748;2023-03-31T04:19:59;17.30;;;5.65;;
20982;SDS011;10650;51.528;6.748;2023-03-31T04:22:29;17.00;;;6.05;;
20982;SDS011;10650;51.528;6.748;2023-03-31T04:25:01;18.58;;;5.40;;
20982;SDS011;10650;51.528;6.748;2023-03-31T04:27:29;14.25;;;6.03;;
20982;SDS011;10650;51.528;6.748;2023-03-31T04:29:59;18.98;;;6.47;;
20982;SDS011;10650;51.528;6.748;2023-03-31T04:32:26;13.25;;;5.72;;
20982;SDS011;10650;51.528;6.748;2023-03-31T04:34:59;14.43;;;5.90;;
20982;SDS011;10650;51.528;6.748;2023-03-31T04:37:30;12.27;;;4.88;;
20982;SDS011;10650;51.528;6.748;2023-03-31T04:40:00;15.45;;;4.82;;
20982;SDS011;10650;51.528;6.748;2023-03-31T04:42:34;15.65;;;5.90;;
20982;SDS011;10650;51.528;6.748;2023-03-31T04:45:02;14.15;;;5.75;;
20982;SDS011;10650;51.528;6.748;2023-03-31T04:47:31;14.70;;;4.88;;
20982;SDS011;10650;51.528;6.748;2023-03-31T04:50:00;13.38;;;4.70;;
20982;SDS011;10650;51.528;6.748;2023-03-31T04:52:27;14.07;;;4.55;;
20982;SDS011;10650;51.528;6.748;2023-03-31T04:54:55;15.25;;;4.10;;
20982;SDS011;10650;51.528;6.748;2023-03-31T04:57:23;8.18;;;3.80;;
20982;SDS011;10650;51.528;6.748;2023-03-31T04:59:51;11.50;;;3.88;;
20982;SDS011;10650;51.528;6.748;2023-03-31T05:02:18;13.65;;;4.68;;
20982;SDS011;10650;51.528;6.748;2023-03-31T05:04:50;14.57;;;4.20;;
20982;SDS011;10650;51.528;6.748;2023-03-31T05:07:20;11.05;;;3.85;;
20982;SDS011;10650;51.528;6.748;2023-03-31T05:09:48;9.73;;;3.67;;
20982;SDS011;10650;51.528;6.748;2023-03-31T05:12:15;9.45;;;3.38;;
20982;SDS011;10650;51.528;6.748;2023-03-31T05:14:43;15.57;;;3.67;;
20982;SDS011;10650;51.528;6.748;2023-03-31T05:17:11;10.70;;;3.53;;
20982;SDS011;10650;51.528;6.748;2023-03-31T05:19:38;10.43;;;3.47;;
20982;SDS011;10650;51.528;6.748;2023-03-31T05:22:06;11.70;;;2.95;;
20982;SDS011;10650;51.528;6.748;2023-03-31T05:24:35;8.07;;;3.00;;
20982;SDS011;10650;51.528;6.748;2023-03-31T05:27:03;9.57;;;2.92;;
20982;SDS011;10650;51.528;6.748;2023-03-31T05:29:31;8.82;;;3.10;;
20982;SDS011;10650;51.528;6.748;2023-03-31T05:31:59;10.88;;;3.05;;
20982;SDS011;10650;51.528;6.748;2023-03-31T05:34:27;9.80;;;2.70;;
20982;SDS011;10650;51.528;6.748;2023-03-31T05:36:55;7.22;;;3.15;;
20982;SDS011;10650;51.528;6.748;2023-03-31T05:42:20;9.27;;;2.45;;
20982;SDS011;10650;51.528;6.748;2023-03-31T05:44:47;6.47;;;2.95;;
20982;SDS011;10650;51.528;6.748;2023-03-31T05:47:15;7.57;;;3.00;;
20982;SDS011;10650;51.528;6.748;2023-03-31T05:49:43;7.78;;;2.25;;
20982;SDS011;10650;51.528;6.748;2023-03-31T05:52:11;7.72;;;2.50;;
20982;SDS011;10650;51.528;6.748;2023-03-31T05:54:39;8.00;;;2.90;;
20982;SDS011;10650;51.528;6.748;2023-03-31T05:57:08;6.95;;;2.70;;
20982;SDS011;10650;51.528;6.748;2023-03-31T05:59:37;4.40;;;2.22;;
20982;SDS011;10650;51.528;6.748;2023-03-31T06:02:07;10.18;;;2.85;;
20982;SDS011;10650;51.528;6.748;2023-03-31T06:04:39;8.43;;;4.40;;
20982;SDS011;10650;51.528;6.748;2023-03-31T06:07:07;9.68;;;3.88;;
20982;SDS011;10650;51.528;6.748;2023-03-31T06:09:35;8.00;;;3.40;;
20982;SDS011;10650;51.528;6.748;2023-03-31T06:12:03;8.20;;;3.58;;
20982;SDS011;10650;51.528;6.748;2023-03-31T06:14:31;10.10;;;3.70;;
20982;SDS011;10650;51.528;6.748;2023-03-31T06:17:00;9.23;;;3.72;;
20982;SDS011;10650;51.528;6.748;2023-03-31T06:19:28;11.70;;;4.90;;
20982;SDS011;10650;51.528;6.748;2023-03-31T06:21:56;11.73;;;5.13;;
20982;SDS011;10650;51.528;6.748;2023-03-31T06:24:25;15.23;;;7.20;;
20982;SDS011;10650;51.528;6.748;2023-03-31T06:26:52;13.00;;;6.50;;
20982;SDS011;10650;51.528;6.748;2023-03-31T06:29:20;14.25;;;7.05;;
20982;SDS011;10650;51.528;6.748;2023-03-31T06:31:48;18.45;;;9.57;;
20982;SDS011;10650;51.528;6.748;2023-03-31T06:34:17;13.10;;;6.60;;
20982;SDS011;10650;51.528;6.748;2023-03-31T06:36:46;10.55;;;4.93;;
20982;SDS011;10650;51.528;6.748;2023-03-31T06:39:14;7.78;;;4.28;;
20982;SDS011;10650;51.528;6.748;2023-03-31T06:41:42;9.38;;;4.90;;
20982;SDS011;10650;51.528;6.748;2023-03-31T06:44:10;12.48;;;5.25;;
20982;SDS011;10650;51.528;6.748;2023-03-31T06:46:37;19.80;;;8.95;;
20982;SDS011;10650;51.528;6.748;2023-03-31T06:49:05;11.23;;;6.47;;
20982;SDS011;10650;51.528;6.748;2023-03-31T06:51:34;17.45;;;7.28;;
20982;SDS011;10650;51.528;6.748;2023-03-31T06:54:02;14.57;;;6.88;;
20982;SDS011;10650;51.528;6.748;2023-03-31T06:56:30;13.05;;;7.63;;
20982;SDS011;10650;51.528;6.748;2023-03-31T06:58:58;16.33;;;7.47;;
20982;SDS011;10650;51.528;6.748;2023-03-31T07:01:26;17.70;;;7.60;;
20982;SDS011;10650;51.528;6.748;2023-03-31T07:03:53;14.02;;;8.00;;
20982;SDS011;10650;51.528;6.748;2023-03-31T07:06:21;11.90;;;7.45;;
20982;SDS011;10650;51.528;6.748;2023-03-31T07:08:51;14.02;;;7.00;;
20982;SDS011;10650;51.528;6.748;2023-03-31T07:11:19;13.23;;;6.95;;
20982;SDS011;10650;51.528;6.748;2023-03-31T07:13:46;18.77;;;7.60;;
20982;SDS011;10650;51.528;6.748;2023-03-31T07:16:14;14.70;;;6.93;;
20982;SDS011;10650;51.528;6.748;2023-03-31T07:18:42;18.40;;;8.88;;
20982;SDS011;10650;51.528;6.748;2023-03-31T07:21:10;15.35;;;7.75;;
20982;SDS011;10650;51.528;6.748;2023-03-31T07:23:38;16.48;;;8.18;;
20982;SDS011;10650;51.528;6.748;2023-03-31T07:26:07;16.98;;;7.82;;
20982;SDS011;10650;51.528;6.748;2023-03-31T07:28:36;18.10;;;7.85;;
20982;SDS011;10650;51.528;6.748;2023-03-31T07:31:09;18.38;;;7.75;;
20982;SDS011;10650;51.528;6.748;2023-03-31T07:33:37;13.25;;;6.32;;
20982;SDS011;10650;51.528;6.748;2023-03-31T07:36:06;10.68;;;5.43;;
20982;SDS011;10650;51.528;6.748;2023-03-31T07:38:39;13.90;;;6.07;;
20982;SDS011;10650;51.528;6.748;2023-03-31T07:41:10;12.85;;;6.40;;
20982;SDS011;10650;51.528;6.748;2023-03-31T07:43:39;17.25;;;7.97;;
20982;SDS011;10650;51.528;6.748;2023-03-31T07:46:12;20.77;;;10.05;;
20982;SDS011;10650;51.528;6.748;2023-03-31T07:48:41;13.88;;;7.82;;
20982;SDS011;10650;51.528;6.748;2023-03-31T07:51:09;9.48;;;5.20;;
20982;SDS011;10650;51.528;6.748;2023-03-31T07:53:37;13.10;;;6.35;;
20982;SDS011;10650;51.528;6.748;2023-03-31T07:56:05;13.63;;;7.03;;
20982;SDS011;10650;51.528;6.748;2023-03-31T07:58:34;15.00;;;7.22;;
20982;SDS011;10650;51.528;6.748;2023-03-31T08:01:03;10.88;;;5.13;;
20982;SDS011;10650;51.528;6.748;2023-03-31T08:03:31;12.05;;;5.18;;
20982;SDS011;10650;51.528;6.748;2023-03-31T08:05:59;14.05;;;6.75;;
20982;SDS011;10650;51.528;6.748;2023-03-31T08:08:27;11.95;;;6.22;;
20982;SDS011;10650;51.528;6.748;2023-03-31T08:10:55;20.50;;;11.55;;
20982;SDS011;10650;51.528;6.748;2023-03-31T08:13:23;12.45;;;6.63;;
20982;SDS011;10650;51.528;6.748;2023-03-31T08:15:52;13.27;;;6.32;;
20982;SDS011;10650;51.528;6.748;2023-03-31T08:18:20;10.43;;;5.45;;
20982;SDS011;10650;51.528;6.748;2023-03-31T08:20:48;11.73;;;5.97;;
20982;SDS011;10650;51.528;6.748;2023-03-31T08:23:16;11.45;;;6.05;;
20982;SDS011;10650;51.528;6.748;2023-03-31T08:25:44;16.52;;;7.13;;
20982;SDS011;10650;51.528;6.748;2023-03-31T08:28:12;14.90;;;7.05;;
20982;SDS011;10650;51.528;6.748;2023-03-31T08:30:40;19.67;;;8.25;;
20982;SDS011;10650;51.528;6.748;2023-03-31T08:33:09;18.85;;;8.95;;
20982;SDS011;10650;51.528;6.748;2023-03-31T08:35:38;16.55;;;9.02;;
20982;SDS011;10650;51.528;6.748;2023-03-31T08:38:06;18.67;;;7.78;;
20982;SDS011;10650;51.528;6.748;2023-03-31T08:40:34;16.77;;;6.75;;
20982;SDS011;10650;51.528;6.748;2023-03-31T08:43:03;15.48;;;5.93;;
20982;SDS011;10650;51.528;6.748;2023-03-31T08:45:35;17.55;;;6.28;;
20982;SDS011;10650;51.528;6.748;2023-03-31T08:48:06;15.25;;;5.70;;
20982;SDS011;10650;51.528;6.748;2023-03-31T08:50:44;19.25;;;6.53;;
20982;SDS011;10650;51.528;6.748;2023-03-31T08:53:19;19.15;;;6.70;;
20982;SDS011;10650;51.528;6.748;2023-03-31T08:55:51;22.98;;;10.15;;
20982;SDS011;10650;51.528;6.748;2023-03-31T08:58:26;16.63;;;6.88;;
20982;SDS011;10650;51.528;6.748;2023-03-31T09:01:01;14.73;;;6.60;;
20982;SDS011;10650;51.528;6.748;2023-03-31T09:03:40;16.70;;;6.20;;
20982;SDS011;10650;51.528;6.748;2023-03-31T09:06:19;14.07;;;4.65;;
20982;SDS011;10650;51.528;6.748;2023-03-31T09:08:52;16.40;;;5.25;;
20982;SDS011;10650;51.528;6.748;2023-03-31T09:11:27;17.88;;;6.45;;
20982;SDS011;10650;51.528;6.748;2023-03-31T09:14:17;18.10;;;5.50;;
20982;SDS011;10650;51.528;6.748;2023-03-31T09:16:53;15.88;;;4.95;;
20982;SDS011;10650;51.528;6.748;2023-03-31T09:19:34;15.30;;;5.35;;
20982;SDS011;10650;51.528;6.748;2023-03-31T09:22:05;14.57;;;5.13;;
20982;SDS011;10650;51.528;6.748;2023-03-31T09:24:42;16.52;;;5.18;;
20982;SDS011;10650;51.528;6.748;2023-03-31T09:27:16;18.55;;;6.32;;
20982;SDS011;10650;51.528;6.748;2023-03-31T09:29:46;20.75;;;6.53;;
20982;SDS011;10650;51.528;6.748;2023-03-31T09:32:18;19.27;;;6.93;;
20982;SDS011;10650;51.528;6.748;2023-03-31T09:34:51;17.17;;;6.90;;
20982;SDS011;10650;51.528;6.748;2023-03-31T09:37:19;23.15;;;9.13;;
20982;SDS011;10650;51.528;6.748;2023-03-31T09:39:47;23.10;;;7.05;;
20982;SDS011;10650;51.528;6.748;2023-03-31T09:42:15;20.83;;;7.40;;
20982;SDS011;10650;51.528;6.748;2023-03-31T09:44:44;17.75;;;6.07;;
20982;SDS011;10650;51.528;6.748;2023-03-31T09:47:15;15.35;;;6.03;;
20982;SDS011;10650;51.528;6.748;2023-03-31T09:49:53;15.75;;;5.50;;
20982;SDS011;10650;51.528;6.748;2023-03-31T09:52:24;17.38;;;5.65;;
20982;SDS011;10650;51.528;6.748;2023-03-31T09:54:57;16.00;;;5.07;;
20982;SDS011;10650;51.528;6.748;2023-03-31T09:57:27;15.20;;;4.55;;
20982;SDS011;10650;51.528;6.748;2023-03-31T10:00:03;12.85;;;4.32;;
20982;SDS011;10650;51.528;6.748;2023-03-31T10:02:40;14.68;;;4.68;;
20982;SDS011;10650;51.528;6.748;2023-03-31T10:05:20;13.10;;;4.25;;
20982;SDS011;10650;51.528;6.748;2023-03-31T10:07:53;12.00;;;3.88;;
20982;SDS011;10650;51.528;6.748;2023-03-31T10:10:44;11.13;;;3.22;;
20982;SDS011;10650;51.528;6.748;2023-03-31T10:13:15;12.32;;;3.10;;
20982;SDS011;10650;51.528;6.748;2023-03-31T10:15:45;12.10;;;3.55;;
20982;SDS011;10650;51.528;6.748;2023-03-31T10:18:13;10.57;;;3.15;;
20982;SDS011;10650;51.528;6.748;2023-03-31T10:20:47;7.03;;;2.60;;
20982;SDS011;10650;51.528;6.748;2023-03-31T10:23:17;11.02;;;3.22;;
20982;SDS011;10650;51.528;6.748;2023-03-31T10:25:51;9.82;;;3.15;;
20982;SDS011;10650;51.528;6.748;2023-03-31T10:28:20;10.55;;;3.53;;
20982;SDS011;10650;51.528;6.748;2023-03-31T10:30:49;12.52;;;3.92;;
20982;SDS011;10650;51.528;6.748;2023-03-31T10:33:19;10.60;;;3.25;;
20982;SDS011;10650;51.528;6.748;2023-03-31T10:35:54;14.77;;;3.60;;
20982;SDS011;10650;51.528;6.748;2023-03-31T10:38:25;15.25;;;3.80;;
20982;SDS011;10650;51.528;6.748;2023-03-31T10:40:57;11.10;;;3.42;;
20982;SDS011;10650;51.528;6.748;2023-03-31T10:43:26;12.65;;;3.67;;
20982;SDS011;10650;51.528;6.748;2023-03-31T10:45:56;12.95;;;3.50;;
20982;SDS011;10650;51.528;6.748;2023-03-31T10:48:27;13.02;;;3.78;;
20982;SDS011;10650;51.528;6.748;2023-03-31T10:50:59;12.85;;;3.88;;
20982;SDS011;10650;51.528;6.748;2023-03-31T10:53:38;12.32;;;3.90;;
20982;SDS011;10650;51.528;6.748;2023-03-31T10:56:10;11.52;;;3.50;;
20982;SDS011;10650;51.528;6.748;2023-03-31T10:58:51;12.65;;;4.05;;
20982;SDS011;10650;51.528;6.748;2023-03-31T11:01:35;16.38;;;5.35;;
20982;SDS011;10650;51.528;6.748;2023-03-31T11:04:32;18.98;;;5.68;;
20982;SDS011;10650;51.528;6.748;2023-03-31T11:07:16;12.52;;;4.07;;
20982;SDS011;10650;51.528;6.748;2023-03-31T11:09:58;15.15;;;3.58;;
20982;SDS011;10650;51.528;6.748;2023-03-31T11:12:36;10.98;;;3.53;;
20982;SDS011;10650;51.528;6.748;2023-03-31T11:15:13;16.95;;;6.75;;
20982;SDS011;10650;51.528;6.748;2023-03-31T11:17:52;10.23;;;3.17;;
20982;SDS011;10650;51.528;6.748;2023-03-31T11:20:30;11.68;;;2.75;;
20982;SDS011;10650;51.528;6.748;2023-03-31T11:23:09;9.60;;;2.75;;
20982;SDS011;10650;51.528;6.748;2023-03-31T11:25:47;6.88;;;2.03;;
20982;SDS011;10650;51.528;6.748;2023-03-31T11:28:28;9.68;;;3.00;;
20982;SDS011;10650;51.528;6.748;2023-03-31T11:31:09;6.53;;;2.08;;
20982;SDS011;10650;51.528;6.748;2023-03-31T11:33:53;5.30;;;1.88;;
20982;SDS011;10650;51.528;6.748;2023-03-31T11:36:31;8.38;;;2.20;;
20982;SDS011;10650;51.528;6.748;2023-03-31T11:39:14;6.97;;;2.38;;
20982;SDS011;10650;51.528;6.748;2023-03-31T11:41:56;4.72;;;1.95;;
20982;SDS011;10650;51.528;6.748;2023-03-31T11:44:28;6.30;;;1.92;;
20982;SDS011;10650;51.528;6.748;2023-03-31T11:47:04;5.55;;;1.80;;
20982;SDS011;10650;51.528;6.748;2023-03-31T11:49:36;5.85;;;2.13;;
20982;SDS011;10650;51.528;6.748;2023-03-31T11:52:08;5.75;;;1.92;;
20982;SDS011;10650;51.528;6.748;2023-03-31T11:54:45;7.03;;;2.30;;
20982;SDS011;10650;51.528;6.748;2023-03-31T11:57:20;7.75;;;2.42;;
20982;SDS011;10650;51.528;6.748;2023-03-31T11:59:54;9.80;;;2.20;;
20982;SDS011;10650;51.528;6.748;2023-03-31T12:02:29;5.78;;;1.90;;
20982;SDS011;10650;51.528;6.748;2023-03-31T12:05:02;6.90;;;2.08;;
20982;SDS011;10650;51.528;6.748;2023-03-31T12:07:34;7.18;;;2.78;;
20982;SDS011;10650;51.528;6.748;2023-03-31T12:10:12;7.13;;;2.55;;
20982;SDS011;10650;51.528;6.748;2023-03-31T12:12:46;6.88;;;2.60;;
20982;SDS011;10650;51.528;6.748;2023-03-31T12:15:20;7.72;;;2.42;;
20982;SDS011;10650;51.528;6.748;2023-03-31T12:17:52;7.70;;;2.10;;
20982;SDS011;10650;51.528;6.748;2023-03-31T12:20:25;7.95;;;2.53;;
20982;SDS011;10650;51.528;6.748;2023-03-31T12:22:57;6.97;;;2.40;;
20982;SDS011;10650;51.528;6.748;2023-03-31T12:25:29;8.25;;;2.60;;
20982;SDS011;10650;51.528;6.748;2023-03-31T12:28:08;9.43;;;4.18;;
20982;SDS011;10650;51.528;6.748;2023-03-31T12:30:38;7.25;;;2.33;;
20982;SDS011;10650;51.528;6.748;2023-03-31T12:33:12;8.18;;;2.55;;
20982;SDS011;10650;51.528;6.748;2023-03-31T12:35:47;8.00;;;2.58;;
20982;SDS011;10650;51.528;6.748;2023-03-31T12:38:37;11.02;;;2.65;;
20982;SDS011;10650;51.528;6.748;2023-03-31T12:41:25;9.45;;;2.65;;
20982;SDS011;10650;51.528;6.748;2023-03-31T12:44:03;9.48;;;2.38;;
20982;SDS011;10650;51.528;6.748;2023-03-31T12:46:55;9.70;;;3.25;;
20982;SDS011;10650;51.528;6.748;2023-03-31T12:49:44;7.93;;;2.35;;
20982;SDS011;10650;51.528;6.748;2023-03-31T12:52:22;10.38;;;2.75;;
20982;SDS011;10650;51.528;6.748;2023-03-31T12:55:08;7.90;;;2.33;;
20982;SDS011;10650;51.528;6.748;2023-03-31T12:57:51;10.18;;;2.55;;
20982;SDS011;10650;51.528;6.748;2023-03-31T13:00:20;7.00;;;2.25;;
20982;SDS011;10650;51.528;6.748;2023-03-31T13:03:31;11.27;;;3.93;;
20982;SDS011;10650;51.528;6.748;2023-03-31T13:06:03;8.83;;;2.50;;
20982;SDS011;10650;51.528;6.748;2023-03-31T13:11:22;9.25;;;2.95;;
20982;SDS011;10650;51.528;6.748;2023-03-31T13:14:05;7.50;;;2.63;;
20982;SDS011;10650;51.528;6.748;2023-03-31T13:16:39;10.88;;;2.70;;
20982;SDS011;10650;51.528;6.748;2023-03-31T13:19:08;8.90;;;2.28;;
20982;SDS011;10650;51.528;6.748;2023-03-31T13:21:51;8.85;;;2.53;;
20982;SDS011;10650;51.528;6.748;2023-03-31T13:24:20;8.95;;;3.60;;
20982;SDS011;10650;51.528;6.748;2023-03-31T13:26:48;9.65;;;3.38;;
20982;SDS011;10650;51.528;6.748;2023-03-31T13:29:23;10.60;;;2.53;;
20982;SDS011;10650;51.528;6.748;2023-03-31T13:32:04;10.05;;;2.47;;
20982;SDS011;10650;51.528;6.748;2023-03-31T13:34:37;7.70;;;2.58;;
20982;SDS011;10650;51.528;6.748;2023-03-31T13:37:12;5.63;;;2.40;;
20982;SDS011;10650;51.528;6.748;2023-03-31T13:40:03;6.53;;;2.03;;
20982;SDS011;10650;51.528;6.748;2023-03-31T13:45:53;7.65;;;2.15;;
20982;SDS011;10650;51.528;6.748;2023-03-31T13:48:33;7.72;;;2.15;;
20982;SDS011;10650;51.528;6.748;2023-03-31T13:54:16;8.60;;;2.72;;
20982;SDS011;10650;51.528;6.748;2023-03-31T14:00:13;7.00;;;2.00;;
20982;SDS011;10650;51.528;6.748;2023-03-31T14:02:57;4.20;;;1.45;;
20982;SDS011;10650;51.528;6.748;2023-03-31T14:05:54;6.60;;;2.28;;
20982;SDS011;10650;51.528;6.748;2023-03-31T14:08:28;6.47;;;2.03;;
20982;SDS011;10650;51.528;6.748;2023-03-31T14:11:20;7.85;;;2.33;;
20982;SDS011;10650;51.528;6.748;2023-03-31T14:14:00;8.50;;;2.20;;
20982;SDS011;10650;51.528;6.748;2023-03-31T14:16:30;4.95;;;1.90;;
20982;SDS011;10650;51.528;6.748;2023-03-31T14:19:06;5.55;;;2.50;;
20982;SDS011;10650;51.528;6.748;2023-03-31T14:21:54;7.28;;;2.28;;
20982;SDS011;10650;51.528;6.748;2023-03-31T14:24:32;8.35;;;2.30;;
20982;SDS011;10650;51.528;6.748;2023-03-31T14:27:10;5.93;;;2.10;;
20982;SDS011;10650;51.528;6.748;2023-03-31T14:29:50;8.55;;;2.33;;
20982;SDS011;10650;51.528;6.748;2023-03-31T14:32:26;8.52;;;2.42;;
20982;SDS011;10650;51.528;6.748;2023-03-31T14:35:07;8.40;;;2.20;;
20982;SDS011;10650;51.528;6.748;2023-03-31T14:37:49;7.05;;;2.55;;
20982;SDS011;10650;51.528;6.748;2023-03-31T14:40:19;6.70;;;2.30;;
20982;SDS011;10650;51.528;6.748;2023-03-31T14:42:47;8.07;;;2.50;;
20982;SDS011;10650;51.528;6.748;2023-03-31T14:45:16;8.05;;;2.15;;
20982;SDS011;10650;51.528;6.748;2023-03-31T14:47:53;8.82;;;2.78;;
20982;SDS011;10650;51.528;6.748;2023-03-31T14:50:28;9.68;;;2.35;;
20982;SDS011;10650;51.528;6.748;2023-03-31T14:52:57;9.00;;;2.72;;
20982;SDS011;10650;51.528;6.748;2023-03-31T14:55:27;8.43;;;2.28;;
20982;SDS011;10650;51.528;6.748;2023-03-31T14:58:20;8.20;;;2.85;;
20982;SDS011;10650;51.528;6.748;2023-03-31T15:00:53;8.60;;;2.67;;
20982;SDS011;10650;51.528;6.748;2023-03-31T15:03:21;8.45;;;2.67;;
20982;SDS011;10650;51.528;6.748;2023-03-31T15:05:56;6.13;;;2.17;;
20982;SDS011;10650;51.528;6.748;2023-03-31T15:08:24;8.77;;;2.65;;
20982;SDS011;10650;51.528;6.748;2023-03-31T15:10:55;6.93;;;2.05;;
20982;SDS011;10650;51.528;6.748;2023-03-31T15:13:39;5.97;;;1.90;;
20982;SDS011;10650;51.528;6.748;2023-03-31T15:16:30;9.45;;;2.88;;
20982;SDS011;10650;51.528;6.748;2023-03-31T15:19:04;25.13;;;8.77;;
20982;SDS011;10650;51.528;6.748;2023-03-31T15:21:39;8.65;;;2.80;;
20982;SDS011;10650;51.528;6.748;2023-03-31T15:24:09;8.23;;;2.70;;
20982;SDS011;10650;51.528;6.748;2023-03-31T15:26:39;6.70;;;2.33;;
20982;SDS011;10650;51.528;6.748;2023-03-31T15:29:16;6.53;;;2.10;;
20982;SDS011;10650;51.528;6.748;2023-03-31T15:31:47;8.82;;;2.95;;
20982;SDS011;10650;51.528;6.748;2023-03-31T15:34:18;8.68;;;3.75;;
20982;SDS011;10650;51.528;6.748;2023-03-31T15:36:53;7.70;;;2.90;;
20982;SDS011;10650;51.528;6.748;2023-03-31T15:41:51;7.07;;;2.35;;
20982;SDS011;10650;51.528;6.748;2023-03-31T15:44:34;6.03;;;1.80;;
20982;SDS011;10650;51.528;6.748;2023-03-31T15:47:10;6.40;;;2.60;;